sensor_id;sensor_type;location;lat;lon;timestamp;P1;durP1;ratioP1;P2;durP2;ratioP2
69970;SDS011;57301;50.328;8.542;2023-06-26T00:01:30;10.70;;;8.02;;
69970;SDS011;57301;50.328;8.542;2023-06-26T00:03:58;11.35;;;7.75;;
69970;SDS011;57301;50.328;8.542;2023-06-26T00:06:25;11.57;;;8.30;;
69970;SDS011;57301;50.328;8.542;2023-06-26T00:08:53;10.35;;;7.47;;
69970;SDS011;57301;50.328;8.542;2023-06-26T00:11:20;10.57;;;8.10;;
69970;SDS011;57301;50.328;8.542;2023-06-26T00:13:47;12.27;;;8.20;;
69970;SDS011;57301;50.328;8.542;2023-06-26T00:16:14;9.82;;;7.53;;
69970;SDS011;57301;50.328;8.542;2023-06-26T00:18:41;10.85;;;8.43;;
69970;SDS011;57301;50.328;8.542;2023-06-26T00:21:07;10.65;;;8.02;;
69970;SDS011;57301;50.328;8.542;2023-06-26T00:23:34;9.50;;;7.63;;
69970;SDS011;57301;50.328;8.542;2023-06-26T00:26:05;11.88;;;8.50;;
69970;SDS011;57301;50.328;8.542;2023-06-26T00:28:32;11.95;;;7.93;;
69970;SDS011;57301;50.328;8.542;2023-06-26T00:30:58;11.55;;;7.60;;
69970;SDS011;57301;50.328;8.542;2023-06-26T00:33:25;11.90;;;8.32;;
69970;SDS011;57301;50.328;8.542;2023-06-26T00:35:51;12.00;;;8.30;;
69970;SDS011;57301;50.328;8.542;2023-06-26T00:38:18;10.25;;;7.85;;
69970;SDS011;57301;50.328;8.542;2023-06-26T00:40:44;10.55;;;7.75;;
69970;SDS011;57301;50.328;8.542;2023-06-26T00:43:11;10.13;;;7.80;;
69970;SDS011;57301;50.328;8.542;2023-06-26T00:45:37;11.60;;;8.20;;
69970;SDS011;57301;50.328;8.542;2023-06-26T00:48:09;11.13;;;8.23;;
69970;SDS011;57301;50.328;8.542;2023-06-26T00:50:38;11.20;;;7.55;;
69970;SDS011;57301;50.328;8.542;2023-06-26T00:53:05;11.65;;;8.35;;
69970;SDS011;57301;50.328;8.542;2023-06-26T00:55:32;10.77;;;7.85;;
69970;SDS011;57301;50.328;8.542;2023-06-26T00:57:58;11.70;;;8.00;;
69970;SDS011;57301;50.328;8.542;2023-06-26T01:00:25;10.70;;;7.80;;
69970;SDS011;57301;50.328;8.542;2023-06-26T01:02:52;11.25;;;7.88;;
69970;SDS011;57301;50.328;8.542;2023-06-26T01:05:19;9.75;;;7.30;;
69970;SDS011;57301;50.328;8.542;2023-06-26T01:07:50;11.43;;;8.15;;
69970;SDS011;57301;50.328;8.542;2023-06-26T01:10:18;10.55;;;7.82;;
69970;SDS011;57301;50.328;8.542;2023-06-26T01:12:45;10.77;;;8.23;;
69970;SDS011;57301;50.328;8.542;2023-06-26T01:15:11;13.07;;;8.48;;
69970;SDS011;57301;50.328;8.542;2023-06-26T01:17:38;14.10;;;8.90;;
69970;SDS011;57301;50.328;8.542;2023-06-26T01:20:06;11.40;;;7.80;;
69970;SDS011;57301;50.328;8.542;2023-06-26T01:25:20;14.40;;;8.73;;
69970;SDS011;57301;50.328;8.542;2023-06-26T01:27:55;13.90;;;8.45;;
69970;SDS011;57301;50.328;8.542;2023-06-26T01:30:22;10.65;;;7.78;;
69970;SDS011;57301;50.328;8.542;2023-06-26T01:32:50;11.70;;;7.80;;
69970;SDS011;57301;50.328;8.542;2023-06-26T01:35:17;9.85;;;8.07;;
69970;SDS011;57301;50.328;8.542;2023-06-26T01:37:44;11.23;;;7.80;;
69970;SDS011;57301;50.328;8.542;2023-06-26T01:40:10;10.80;;;7.85;;
69970;SDS011;57301;50.328;8.542;2023-06-26T01:42:37;11.60;;;8.25;;
69970;SDS011;57301;50.328;8.542;2023-06-26T01:45:07;11.57;;;8.25;;
69970;SDS011;57301;50.328;8.542;2023-06-26T01:47:42;11.95;;;8.10;;
69970;SDS011;57301;50.328;8.542;2023-06-26T01:50:17;9.87;;;7.80;;
69970;SDS011;57301;50.328;8.542;2023-06-26T01:53:10;16.70;;;10.80;;
69970;SDS011;57301;50.328;8.542;2023-06-26T01:55:46;12.32;;;9.32;;
69970;SDS011;57301;50.328;8.542;2023-06-26T01:58:16;13.80;;;10.80;;
69970;SDS011;57301;50.328;8.542;2023-06-26T02:00:46;12.40;;;8.85;;
69970;SDS011;57301;50.328;8.542;2023-06-26T02:03:13;10.90;;;7.90;;
69970;SDS011;57301;50.328;8.542;2023-06-26T02:05:40;11.27;;;8.90;;
69970;SDS011;57301;50.328;8.542;2023-06-26T02:08:08;10.73;;;8.43;;
69970;SDS011;57301;50.328;8.542;2023-06-26T02:10:35;13.02;;;8.98;;
69970;SDS011;57301;50.328;8.542;2023-06-26T02:13:02;11.20;;;8.57;;
69970;SDS011;57301;50.328;8.542;2023-06-26T02:15:29;12.83;;;8.40;;
69970;SDS011;57301;50.328;8.542;2023-06-26T02:17:55;11.98;;;8.27;;
69970;SDS011;57301;50.328;8.542;2023-06-26T02:20:22;10.50;;;8.00;;
69970;SDS011;57301;50.328;8.542;2023-06-26T02:22:48;12.65;;;8.52;;
69970;SDS011;57301;50.328;8.542;2023-06-26T02:25:15;11.20;;;8.25;;
69970;SDS011;57301;50.328;8.542;2023-06-26T02:27:41;11.43;;;7.97;;
69970;SDS011;57301;50.328;8.542;2023-06-26T02:30:09;10.70;;;7.90;;
69970;SDS011;57301;50.328;8.542;2023-06-26T02:32:35;12.27;;;8.32;;
69970;SDS011;57301;50.328;8.542;2023-06-26T02:35:02;13.82;;;8.27;;
69970;SDS011;57301;50.328;8.542;2023-06-26T02:37:29;11.88;;;8.48;;
69970;SDS011;57301;50.328;8.542;2023-06-26T02:39:55;11.07;;;8.53;;
69970;SDS011;57301;50.328;8.542;2023-06-26T02:42:22;11.60;;;8.77;;
69970;SDS011;57301;50.328;8.542;2023-06-26T02:44:48;12.95;;;8.60;;
69970;SDS011;57301;50.328;8.542;2023-06-26T02:47:15;12.82;;;8.40;;
69970;SDS011;57301;50.328;8.542;2023-06-26T02:49:41;11.98;;;8.23;;
69970;SDS011;57301;50.328;8.542;2023-06-26T02:52:08;14.77;;;9.67;;
69970;SDS011;57301;50.328;8.542;2023-06-26T02:54:34;12.98;;;8.60;;
69970;SDS011;57301;50.328;8.542;2023-06-26T02:57:01;16.17;;;8.82;;
69970;SDS011;57301;50.328;8.542;2023-06-26T02:59:27;11.75;;;8.73;;
69970;SDS011;57301;50.328;8.542;2023-06-26T03:01:53;15.32;;;9.13;;
69970;SDS011;57301;50.328;8.542;2023-06-26T03:04:20;13.17;;;8.17;;
69970;SDS011;57301;50.328;8.542;2023-06-26T03:06:47;11.55;;;7.70;;
69970;SDS011;57301;50.328;8.542;2023-06-26T03:09:14;14.65;;;8.90;;
69970;SDS011;57301;50.328;8.542;2023-06-26T03:11:42;13.40;;;8.35;;
69970;SDS011;57301;50.328;8.542;2023-06-26T03:14:08;13.40;;;7.60;;
69970;SDS011;57301;50.328;8.542;2023-06-26T03:16:35;11.30;;;8.43;;
69970;SDS011;57301;50.328;8.542;2023-06-26T03:19:02;12.68;;;8.68;;
69970;SDS011;57301;50.328;8.542;2023-06-26T03:21:28;12.23;;;8.63;;
69970;SDS011;57301;50.328;8.542;2023-06-26T03:23:55;11.30;;;8.30;;
69970;SDS011;57301;50.328;8.542;2023-06-26T03:26:21;33.33;;;19.25;;
69970;SDS011;57301;50.328;8.542;2023-06-26T03:28:53;15.80;;;10.43;;
69970;SDS011;57301;50.328;8.542;2023-06-26T03:31:20;13.38;;;8.90;;
69970;SDS011;57301;50.328;8.542;2023-06-26T03:33:47;12.00;;;8.57;;
69970;SDS011;57301;50.328;8.542;2023-06-26T03:36:13;11.85;;;8.38;;
69970;SDS011;57301;50.328;8.542;2023-06-26T03:38:40;11.20;;;8.45;;
69970;SDS011;57301;50.328;8.542;2023-06-26T03:41:07;12.47;;;8.33;;
69970;SDS011;57301;50.328;8.542;2023-06-26T03:43:34;13.48;;;8.82;;
69970;SDS011;57301;50.328;8.542;2023-06-26T03:46:00;11.43;;;8.80;;
69970;SDS011;57301;50.328;8.542;2023-06-26T03:48:27;12.20;;;8.32;;
69970;SDS011;57301;50.328;8.542;2023-06-26T03:50:53;13.15;;;8.90;;
69970;SDS011;57301;50.328;8.542;2023-06-26T03:53:20;11.77;;;8.80;;
69970;SDS011;57301;50.328;8.542;2023-06-26T03:55:46;11.65;;;7.82;;
69970;SDS011;57301;50.328;8.542;2023-06-26T03:58:13;12.35;;;8.77;;
69970;SDS011;57301;50.328;8.542;2023-06-26T04:00:39;13.75;;;8.52;;
69970;SDS011;57301;50.328;8.542;2023-06-26T04:03:07;13.60;;;8.95;;
69970;SDS011;57301;50.328;8.542;2023-06-26T04:05:34;12.57;;;7.97;;
69970;SDS011;57301;50.328;8.542;2023-06-26T04:08:00;13.02;;;8.18;;
69970;SDS011;57301;50.328;8.542;2023-06-26T04:10:27;13.48;;;8.23;;
69970;SDS011;57301;50.328;8.542;2023-06-26T04:12:54;13.70;;;8.50;;
69970;SDS011;57301;50.328;8.542;2023-06-26T04:15:20;16.05;;;8.50;;
69970;SDS011;57301;50.328;8.542;2023-06-26T04:17:47;13.43;;;9.53;;
69970;SDS011;57301;50.328;8.542;2023-06-26T04:20:13;14.13;;;8.40;;
69970;SDS011;57301;50.328;8.542;2023-06-26T04:22:40;13.35;;;8.90;;
69970;SDS011;57301;50.328;8.542;2023-06-26T04:25:07;10.88;;;8.27;;
69970;SDS011;57301;50.328;8.542;2023-06-26T04:27:34;12.77;;;8.63;;
69970;SDS011;57301;50.328;8.542;2023-06-26T04:30:03;12.87;;;9.00;;
69970;SDS011;57301;50.328;8.542;2023-06-26T04:32:31;12.55;;;8.52;;
69970;SDS011;57301;50.328;8.542;2023-06-26T04:34:57;12.95;;;9.07;;
69970;SDS011;57301;50.328;8.542;2023-06-26T04:37:25;11.98;;;8.85;;
69970;SDS011;57301;50.328;8.542;2023-06-26T04:39:52;12.00;;;8.95;;
69970;SDS011;57301;50.328;8.542;2023-06-26T04:42:18;13.27;;;8.80;;
69970;SDS011;57301;50.328;8.542;2023-06-26T04:44:47;13.18;;;9.20;;
69970;SDS011;57301;50.328;8.542;2023-06-26T04:47:14;12.93;;;9.07;;
69970;SDS011;57301;50.328;8.542;2023-06-26T04:49:43;11.80;;;8.45;;
69970;SDS011;57301;50.328;8.542;2023-06-26T04:52:12;11.63;;;8.55;;
69970;SDS011;57301;50.328;8.542;2023-06-26T04:54:41;10.23;;;8.00;;
69970;SDS011;57301;50.328;8.542;2023-06-26T04:57:09;11.07;;;8.10;;
69970;SDS011;57301;50.328;8.542;2023-06-26T04:59:35;12.15;;;9.05;;
69970;SDS011;57301;50.328;8.542;2023-06-26T05:02:02;14.38;;;9.10;;
69970;SDS011;57301;50.328;8.542;2023-06-26T05:04:29;12.82;;;8.68;;
69970;SDS011;57301;50.328;8.542;2023-06-26T05:06:56;11.50;;;8.43;;
69970;SDS011;57301;50.328;8.542;2023-06-26T05:09:22;12.13;;;8.25;;
69970;SDS011;57301;50.328;8.542;2023-06-26T05:11:49;10.07;;;7.88;;
69970;SDS011;57301;50.328;8.542;2023-06-26T05:14:15;11.82;;;8.75;;
69970;SDS011;57301;50.328;8.542;2023-06-26T05:16:42;11.52;;;8.43;;
69970;SDS011;57301;50.328;8.542;2023-06-26T05:19:08;11.37;;;8.40;;
69970;SDS011;57301;50.328;8.542;2023-06-26T05:21:35;13.18;;;8.73;;
69970;SDS011;57301;50.328;8.542;2023-06-26T05:24:02;11.57;;;8.40;;
69970;SDS011;57301;50.328;8.542;2023-06-26T05:26:29;13.15;;;8.35;;
69970;SDS011;57301;50.328;8.542;2023-06-26T05:28:56;10.38;;;7.70;;
69970;SDS011;57301;50.328;8.542;2023-06-26T05:31:23;13.43;;;8.13;;
69970;SDS011;57301;50.328;8.542;2023-06-26T05:33:50;13.45;;;8.27;;
69970;SDS011;57301;50.328;8.542;2023-06-26T05:36:21;12.63;;;7.88;;
69970;SDS011;57301;50.328;8.542;2023-06-26T05:38:50;12.85;;;8.27;;
69970;SDS011;57301;50.328;8.542;2023-06-26T05:41:17;10.32;;;7.90;;
69970;SDS011;57301;50.328;8.542;2023-06-26T05:43:44;9.43;;;7.30;;
69970;SDS011;57301;50.328;8.542;2023-06-26T05:46:11;10.93;;;7.45;;
69970;SDS011;57301;50.328;8.542;2023-06-26T05:48:37;11.90;;;7.63;;
69970;SDS011;57301;50.328;8.542;2023-06-26T05:51:04;29.73;;;20.50;;
69970;SDS011;57301;50.328;8.542;2023-06-26T05:53:31;12.10;;;7.95;;
69970;SDS011;57301;50.328;8.542;2023-06-26T05:55:57;9.80;;;7.33;;
69970;SDS011;57301;50.328;8.542;2023-06-26T05:58:25;10.60;;;6.95;;
69970;SDS011;57301;50.328;8.542;2023-06-26T06:00:56;9.40;;;7.30;;
69970;SDS011;57301;50.328;8.542;2023-06-26T06:03:22;9.15;;;6.75;;
69970;SDS011;57301;50.328;8.542;2023-06-26T06:05:49;10.43;;;6.65;;
69970;SDS011;57301;50.328;8.542;2023-06-26T06:08:16;11.63;;;6.87;;
69970;SDS011;57301;50.328;8.542;2023-06-26T06:10:42;8.95;;;7.03;;
69970;SDS011;57301;50.328;8.542;2023-06-26T06:13:14;9.07;;;7.07;;
69970;SDS011;57301;50.328;8.542;2023-06-26T06:15:41;9.57;;;6.90;;
69970;SDS011;57301;50.328;8.542;2023-06-26T06:18:08;9.98;;;6.93;;
69970;SDS011;57301;50.328;8.542;2023-06-26T06:20:34;9.47;;;6.73;;
69970;SDS011;57301;50.328;8.542;2023-06-26T06:23:02;8.40;;;6.60;;
69970;SDS011;57301;50.328;8.542;2023-06-26T06:25:28;10.00;;;6.68;;
69970;SDS011;57301;50.328;8.542;2023-06-26T06:27:55;11.13;;;6.55;;
69970;SDS011;57301;50.328;8.542;2023-06-26T06:30:21;9.13;;;6.63;;
69970;SDS011;57301;50.328;8.542;2023-06-26T06:33:08;8.57;;;6.33;;
69970;SDS011;57301;50.328;8.542;2023-06-26T06:35:34;10.20;;;6.18;;
69970;SDS011;57301;50.328;8.542;2023-06-26T06:38:01;9.20;;;6.30;;
69970;SDS011;57301;50.328;8.542;2023-06-26T06:40:27;11.18;;;6.63;;
69970;SDS011;57301;50.328;8.542;2023-06-26T06:46:00;10.53;;;5.93;;
69970;SDS011;57301;50.328;8.542;2023-06-26T06:49:10;10.27;;;6.22;;
69970;SDS011;57301;50.328;8.542;2023-06-26T06:51:39;8.77;;;6.30;;
69970;SDS011;57301;50.328;8.542;2023-06-26T06:54:06;7.90;;;5.85;;
69970;SDS011;57301;50.328;8.542;2023-06-26T06:56:41;7.20;;;5.68;;
69970;SDS011;57301;50.328;8.542;2023-06-26T06:59:25;8.57;;;5.60;;
69970;SDS011;57301;50.328;8.542;2023-06-26T07:02:16;6.93;;;5.32;;
69970;SDS011;57301;50.328;8.542;2023-06-26T07:04:43;6.90;;;5.47;;
69970;SDS011;57301;50.328;8.542;2023-06-26T07:07:10;8.32;;;6.55;;
69970;SDS011;57301;50.328;8.542;2023-06-26T07:09:36;9.68;;;6.90;;
69970;SDS011;57301;50.328;8.542;2023-06-26T07:12:04;8.63;;;5.90;;
69970;SDS011;57301;50.328;8.542;2023-06-26T07:14:31;6.63;;;5.50;;
69970;SDS011;57301;50.328;8.542;2023-06-26T07:16:58;7.47;;;5.57;;
69970;SDS011;57301;50.328;8.542;2023-06-26T07:19:32;6.85;;;5.78;;
69970;SDS011;57301;50.328;8.542;2023-06-26T07:22:03;7.28;;;5.90;;
69970;SDS011;57301;50.328;8.542;2023-06-26T07:24:30;7.37;;;5.40;;
69970;SDS011;57301;50.328;8.542;2023-06-26T07:26:59;8.27;;;5.68;;
69970;SDS011;57301;50.328;8.542;2023-06-26T07:29:29;6.93;;;5.50;;
69970;SDS011;57301;50.328;8.542;2023-06-26T07:31:56;6.55;;;5.45;;
69970;SDS011;57301;50.328;8.542;2023-06-26T07:34:22;7.68;;;5.75;;
69970;SDS011;57301;50.328;8.542;2023-06-26T07:36:49;8.60;;;5.77;;
69970;SDS011;57301;50.328;8.542;2023-06-26T07:39:15;5.90;;;5.18;;
69970;SDS011;57301;50.328;8.542;2023-06-26T07:41:48;13.25;;;9.13;;
69970;SDS011;57301;50.328;8.542;2023-06-26T07:44:15;19.65;;;17.58;;
69970;SDS011;57301;50.328;8.542;2023-06-26T07:46:42;7.10;;;5.68;;
69970;SDS011;57301;50.328;8.542;2023-06-26T07:49:08;8.83;;;6.10;;
69970;SDS011;57301;50.328;8.542;2023-06-26T07:51:35;11.52;;;5.75;;
69970;SDS011;57301;50.328;8.542;2023-06-26T07:54:01;6.55;;;5.32;;
69970;SDS011;57301;50.328;8.542;2023-06-26T07:56:28;6.95;;;5.25;;
69970;SDS011;57301;50.328;8.542;2023-06-26T07:58:55;6.57;;;5.45;;
69970;SDS011;57301;50.328;8.542;2023-06-26T08:01:23;6.77;;;5.67;;
69970;SDS011;57301;50.328;8.542;2023-06-26T08:03:50;7.45;;;5.63;;
69970;SDS011;57301;50.328;8.542;2023-06-26T08:06:17;7.60;;;5.45;;
69970;SDS011;57301;50.328;8.542;2023-06-26T08:08:45;11.93;;;8.10;;
69970;SDS011;57301;50.328;8.542;2023-06-26T08:11:11;16.90;;;11.60;;
69970;SDS011;57301;50.328;8.542;2023-06-26T08:13:38;7.73;;;6.17;;
69970;SDS011;57301;50.328;8.542;2023-06-26T08:16:05;7.30;;;5.95;;
69970;SDS011;57301;50.328;8.542;2023-06-26T08:18:32;7.45;;;6.25;;
69970;SDS011;57301;50.328;8.542;2023-06-26T08:20:58;7.30;;;5.82;;
69970;SDS011;57301;50.328;8.542;2023-06-26T08:23:25;9.32;;;6.00;;
69970;SDS011;57301;50.328;8.542;2023-06-26T08:25:52;8.27;;;6.10;;
69970;SDS011;57301;50.328;8.542;2023-06-26T08:28:18;6.80;;;5.45;;
69970;SDS011;57301;50.328;8.542;2023-06-26T08:30:45;6.90;;;5.40;;
69970;SDS011;57301;50.328;8.542;2023-06-26T08:33:11;9.07;;;6.05;;
69970;SDS011;57301;50.328;8.542;2023-06-26T08:35:38;7.47;;;6.18;;
69970;SDS011;57301;50.328;8.542;2023-06-26T08:38:05;13.40;;;6.50;;
69970;SDS011;57301;50.328;8.542;2023-06-26T08:40:31;9.48;;;6.00;;
69970;SDS011;57301;50.328;8.542;2023-06-26T08:42:58;10.13;;;6.10;;
69970;SDS011;57301;50.328;8.542;2023-06-26T08:45:24;8.48;;;6.20;;
69970;SDS011;57301;50.328;8.542;2023-06-26T08:47:51;8.88;;;6.30;;
69970;SDS011;57301;50.328;8.542;2023-06-26T08:50:22;8.57;;;6.50;;
69970;SDS011;57301;50.328;8.542;2023-06-26T08:52:53;9.15;;;6.47;;
69970;SDS011;57301;50.328;8.542;2023-06-26T08:55:30;8.95;;;6.25;;
69970;SDS011;57301;50.328;8.542;2023-06-26T08:57:59;8.73;;;6.10;;
69970;SDS011;57301;50.328;8.542;2023-06-26T09:00:26;8.13;;;6.28;;
69970;SDS011;57301;50.328;8.542;2023-06-26T09:02:52;9.17;;;6.33;;
69970;SDS011;57301;50.328;8.542;2023-06-26T09:05:19;9.25;;;6.20;;
69970;SDS011;57301;50.328;8.542;2023-06-26T09:07:46;7.30;;;6.07;;
69970;SDS011;57301;50.328;8.542;2023-06-26T09:10:13;8.15;;;6.03;;
69970;SDS011;57301;50.328;8.542;2023-06-26T09:12:39;9.23;;;5.53;;
69970;SDS011;57301;50.328;8.542;2023-06-26T09:15:06;9.17;;;5.73;;
69970;SDS011;57301;50.328;8.542;2023-06-26T09:17:38;8.75;;;5.57;;
69970;SDS011;57301;50.328;8.542;2023-06-26T09:20:07;12.40;;;6.38;;
69970;SDS011;57301;50.328;8.542;2023-06-26T09:22:37;8.50;;;6.10;;
69970;SDS011;57301;50.328;8.542;2023-06-26T09:25:06;10.77;;;6.78;;
69970;SDS011;57301;50.328;8.542;2023-06-26T09:27:36;6.93;;;5.73;;
69970;SDS011;57301;50.328;8.542;2023-06-26T09:30:18;10.10;;;6.00;;
69970;SDS011;57301;50.328;8.542;2023-06-26T09:32:45;7.63;;;5.68;;
69970;SDS011;57301;50.328;8.542;2023-06-26T09:35:12;9.13;;;5.63;;
69970;SDS011;57301;50.328;8.542;2023-06-26T09:37:40;8.43;;;5.88;;
69970;SDS011;57301;50.328;8.542;2023-06-26T09:40:09;7.63;;;5.33;;
69970;SDS011;57301;50.328;8.542;2023-06-26T09:42:39;8.43;;;5.40;;
69970;SDS011;57301;50.328;8.542;2023-06-26T09:45:18;9.65;;;5.85;;
69970;SDS011;57301;50.328;8.542;2023-06-26T09:47:48;7.90;;;5.70;;
69970;SDS011;57301;50.328;8.542;2023-06-26T09:50:22;9.48;;;5.93;;
69970;SDS011;57301;50.328;8.542;2023-06-26T09:52:50;10.17;;;5.90;;
69970;SDS011;57301;50.328;8.542;2023-06-26T09:55:19;11.18;;;6.07;;
69970;SDS011;57301;50.328;8.542;2023-06-26T09:58:42;10.98;;;6.00;;
69970;SDS011;57301;50.328;8.542;2023-06-26T10:01:17;8.93;;;6.05;;
69970;SDS011;57301;50.328;8.542;2023-06-26T10:03:44;7.10;;;5.15;;
69970;SDS011;57301;50.328;8.542;2023-06-26T10:06:11;6.43;;;4.90;;
69970;SDS011;57301;50.328;8.542;2023-06-26T10:08:54;9.90;;;5.40;;
69970;SDS011;57301;50.328;8.542;2023-06-26T10:11:24;7.22;;;5.25;;
69970;SDS011;57301;50.328;8.542;2023-06-26T10:13:55;6.82;;;4.97;;
69970;SDS011;57301;50.328;8.542;2023-06-26T10:16:45;8.32;;;5.00;;
69970;SDS011;57301;50.328;8.542;2023-06-26T10:19:32;7.50;;;4.93;;
69970;SDS011;57301;50.328;8.542;2023-06-26T10:22:07;9.30;;;5.30;;
69970;SDS011;57301;50.328;8.542;2023-06-26T10:24:49;8.55;;;6.75;;
69970;SDS011;57301;50.328;8.542;2023-06-26T10:27:35;7.93;;;5.05;;
69970;SDS011;57301;50.328;8.542;2023-06-26T10:33:28;8.50;;;5.70;;
69970;SDS011;57301;50.328;8.542;2023-06-26T10:36:11;6.80;;;5.63;;
69970;SDS011;57301;50.328;8.542;2023-06-26T10:38:54;8.60;;;5.50;;
69970;SDS011;57301;50.328;8.542;2023-06-26T10:41:38;7.97;;;5.38;;
69970;SDS011;57301;50.328;8.542;2023-06-26T10:44:39;7.90;;;5.20;;
69970;SDS011;57301;50.328;8.542;2023-06-26T10:47:11;7.10;;;4.97;;
69970;SDS011;57301;50.328;8.542;2023-06-26T10:49:55;8.73;;;5.10;;
69970;SDS011;57301;50.328;8.542;2023-06-26T10:52:37;12.30;;;9.07;;
69970;SDS011;57301;50.328;8.542;2023-06-26T10:55:04;9.68;;;5.43;;
69970;SDS011;57301;50.328;8.542;2023-06-26T10:57:38;7.25;;;4.78;;
69970;SDS011;57301;50.328;8.542;2023-06-26T11:00:19;7.67;;;4.97;;
69970;SDS011;57301;50.328;8.542;2023-06-26T11:02:52;7.78;;;4.30;;
69970;SDS011;57301;50.328;8.542;2023-06-26T11:05:44;7.60;;;4.68;;
69970;SDS011;57301;50.328;8.542;2023-06-26T11:08:44;5.60;;;4.40;;
69970;SDS011;57301;50.328;8.542;2023-06-26T11:11:15;6.30;;;4.47;;
69970;SDS011;57301;50.328;8.542;2023-06-26T11:13:46;9.97;;;6.20;;
69970;SDS011;57301;50.328;8.542;2023-06-26T11:16:14;9.25;;;5.53;;
69970;SDS011;57301;50.328;8.542;2023-06-26T11:18:41;7.57;;;4.65;;
69970;SDS011;57301;50.328;8.542;2023-06-26T11:21:09;8.70;;;4.93;;
69970;SDS011;57301;50.328;8.542;2023-06-26T11:23:40;8.48;;;5.07;;
69970;SDS011;57301;50.328;8.542;2023-06-26T11:26:17;8.30;;;4.87;;
69970;SDS011;57301;50.328;8.542;2023-06-26T11:28:50;10.50;;;4.95;;
69970;SDS011;57301;50.328;8.542;2023-06-26T11:31:31;8.30;;;5.05;;
69970;SDS011;57301;50.328;8.542;2023-06-26T11:34:00;9.00;;;5.20;;
69970;SDS011;57301;50.328;8.542;2023-06-26T11:36:27;9.18;;;5.32;;
69970;SDS011;57301;50.328;8.542;2023-06-26T11:38:54;9.00;;;5.57;;
69970;SDS011;57301;50.328;8.542;2023-06-26T11:41:23;8.95;;;5.95;;
69970;SDS011;57301;50.328;8.542;2023-06-26T11:43:51;8.55;;;5.70;;
69970;SDS011;57301;50.328;8.542;2023-06-26T11:46:19;9.93;;;6.13;;
69970;SDS011;57301;50.328;8.542;2023-06-26T11:48:46;8.95;;;5.60;;
69970;SDS011;57301;50.328;8.542;2023-06-26T11:51:14;8.73;;;5.30;;
69970;SDS011;57301;50.328;8.542;2023-06-26T11:53:42;10.05;;;5.72;;
69970;SDS011;57301;50.328;8.542;2023-06-26T11:56:10;7.75;;;5.90;;
69970;SDS011;57301;50.328;8.542;2023-06-26T11:58:57;10.93;;;5.57;;
69970;SDS011;57301;50.328;8.542;2023-06-26T12:01:35;11.80;;;6.30;;
69970;SDS011;57301;50.328;8.542;2023-06-26T12:04:05;10.63;;;6.10;;
69970;SDS011;57301;50.328;8.542;2023-06-26T12:06:35;8.38;;;5.32;;
69970;SDS011;57301;50.328;8.542;2023-06-26T12:09:10;10.45;;;5.68;;
69970;SDS011;57301;50.328;8.542;2023-06-26T12:11:41;9.05;;;5.90;;
69970;SDS011;57301;50.328;8.542;2023-06-26T12:14:09;9.52;;;5.95;;
69970;SDS011;57301;50.328;8.542;2023-06-26T12:16:37;8.27;;;5.50;;
69970;SDS011;57301;50.328;8.542;2023-06-26T12:19:05;8.27;;;5.43;;
69970;SDS011;57301;50.328;8.542;2023-06-26T12:24:03;8.15;;;5.85;;
69970;SDS011;57301;50.328;8.542;2023-06-26T12:26:31;8.70;;;5.85;;
69970;SDS011;57301;50.328;8.542;2023-06-26T12:29:04;9.63;;;5.30;;
69970;SDS011;57301;50.328;8.542;2023-06-26T12:31:33;9.20;;;5.35;;
69970;SDS011;57301;50.328;8.542;2023-06-26T12:34:08;12.02;;;5.70;;
69970;SDS011;57301;50.328;8.542;2023-06-26T12:36:41;7.07;;;4.80;;
69970;SDS011;57301;50.328;8.542;2023-06-26T12:39:12;8.98;;;5.45;;
69970;SDS011;57301;50.328;8.542;2023-06-26T12:41:51;7.73;;;4.87;;
69970;SDS011;57301;50.328;8.542;2023-06-26T12:47:26;8.50;;;5.30;;
69970;SDS011;57301;50.328;8.542;2023-06-26T12:50:04;9.27;;;5.15;;
69970;SDS011;57301;50.328;8.542;2023-06-26T12:53:10;11.45;;;7.85;;
69970;SDS011;57301;50.328;8.542;2023-06-26T12:55:55;7.40;;;5.07;;
69970;SDS011;57301;50.328;8.542;2023-06-26T12:58:22;10.23;;;6.55;;
69970;SDS011;57301;50.328;8.542;2023-06-26T13:00:49;11.68;;;7.90;;
69970;SDS011;57301;50.328;8.542;2023-06-26T13:03:15;10.27;;;5.10;;
69970;SDS011;57301;50.328;8.542;2023-06-26T13:05:42;10.35;;;6.05;;
69970;SDS011;57301;50.328;8.542;2023-06-26T13:08:09;11.17;;;7.37;;
69970;SDS011;57301;50.328;8.542;2023-06-26T13:10:35;10.73;;;5.47;;
69970;SDS011;57301;50.328;8.542;2023-06-26T13:13:02;7.95;;;4.63;;
69970;SDS011;57301;50.328;8.542;2023-06-26T13:15:29;6.68;;;4.90;;
69970;SDS011;57301;50.328;8.542;2023-06-26T13:17:56;8.13;;;5.78;;
69970;SDS011;57301;50.328;8.542;2023-06-26T13:20:22;10.07;;;4.93;;
69970;SDS011;57301;50.328;8.542;2023-06-26T13:22:49;6.88;;;4.65;;
69970;SDS011;57301;50.328;8.542;2023-06-26T13:25:15;9.18;;;4.22;;
69970;SDS011;57301;50.328;8.542;2023-06-26T13:27:42;9.70;;;4.07;;
69970;SDS011;57301;50.328;8.542;2023-06-26T13:30:08;9.55;;;4.47;;
69970;SDS011;57301;50.328;8.542;2023-06-26T13:32:35;6.77;;;3.53;;
69970;SDS011;57301;50.328;8.542;2023-06-26T13:35:02;7.05;;;3.70;;
69970;SDS011;57301;50.328;8.542;2023-06-26T13:37:30;7.47;;;3.72;;
69970;SDS011;57301;50.328;8.542;2023-06-26T13:39:57;8.10;;;3.60;;
69970;SDS011;57301;50.328;8.542;2023-06-26T13:42:25;10.45;;;3.40;;
69970;SDS011;57301;50.328;8.542;2023-06-26T13:44:52;6.50;;;3.80;;
69970;SDS011;57301;50.328;8.542;2023-06-26T13:47:29;8.50;;;3.40;;
69970;SDS011;57301;50.328;8.542;2023-06-26T13:49:56;7.18;;;3.22;;
69970;SDS011;57301;50.328;8.542;2023-06-26T13:52:22;7.63;;;3.50;;
69970;SDS011;57301;50.328;8.542;2023-06-26T13:54:49;7.70;;;3.53;;
69970;SDS011;57301;50.328;8.542;2023-06-26T13:57:15;11.53;;;4.07;;
69970;SDS011;57301;50.328;8.542;2023-06-26T13:59:42;7.63;;;3.95;;
69970;SDS011;57301;50.328;8.542;2023-06-26T14:02:10;7.53;;;2.90;;
69970;SDS011;57301;50.328;8.542;2023-06-26T14:04:37;6.45;;;3.70;;
69970;SDS011;57301;50.328;8.542;2023-06-26T14:07:04;7.00;;;3.50;;
69970;SDS011;57301;50.328;8.542;2023-06-26T14:09:31;9.90;;;4.70;;
69970;SDS011;57301;50.328;8.542;2023-06-26T14:11:58;8.90;;;4.32;;
69970;SDS011;57301;50.328;8.542;2023-06-26T14:14:24;9.57;;;5.00;;
69970;SDS011;57301;50.328;8.542;2023-06-26T14:16:51;8.88;;;3.60;;
69970;SDS011;57301;50.328;8.542;2023-06-26T14:19:18;10.35;;;5.03;;
69970;SDS011;57301;50.328;8.542;2023-06-26T14:21:44;7.07;;;2.97;;
69970;SDS011;57301;50.328;8.542;2023-06-26T14:24:11;10.52;;;6.97;;
69970;SDS011;57301;50.328;8.542;2023-06-26T14:26:38;5.43;;;2.63;;
69970;SDS011;57301;50.328;8.542;2023-06-26T14:29:04;7.63;;;3.72;;
69970;SDS011;57301;50.328;8.542;2023-06-26T14:31:32;10.52;;;4.55;;
69970;SDS011;57301;50.328;8.542;2023-06-26T14:33:59;8.00;;;5.23;;
69970;SDS011;57301;50.328;8.542;2023-06-26T14:36:25;5.18;;;2.55;;
69970;SDS011;57301;50.328;8.542;2023-06-26T14:38:53;9.27;;;3.53;;
69970;SDS011;57301;50.328;8.542;2023-06-26T14:41:20;5.03;;;2.53;;
69970;SDS011;57301;50.328;8.542;2023-06-26T14:43:47;5.78;;;2.50;;
69970;SDS011;57301;50.328;8.542;2023-06-26T14:46:15;4.83;;;2.33;;
69970;SDS011;57301;50.328;8.542;2023-06-26T14:48:42;5.30;;;2.45;;
69970;SDS011;57301;50.328;8.542;2023-06-26T14:51:08;5.65;;;2.63;;
69970;SDS011;57301;50.328;8.542;2023-06-26T14:53:35;5.20;;;2.83;;
69970;SDS011;57301;50.328;8.542;2023-06-26T14:56:01;6.07;;;2.22;;
69970;SDS011;57301;50.328;8.542;2023-06-26T14:58:29;5.67;;;2.70;;
69970;SDS011;57301;50.328;8.542;2023-06-26T15:00:55;5.53;;;2.40;;
69970;SDS011;57301;50.328;8.542;2023-06-26T15:03:22;4.28;;;2.10;;
69970;SDS011;57301;50.328;8.542;2023-06-26T15:05:48;7.85;;;2.42;;
69970;SDS011;57301;50.328;8.542;2023-06-26T15:08:15;5.88;;;2.50;;